createdAt,value
2023-05-05T00:00:29.499Z,25.67
2023-05-05T00:02:56.500Z,25.55
2023-05-05T00:05:22.982Z,24.15
2023-05-05T00:07:49.390Z,24.58
2023-05-05T00:10:15.794Z,24.67
2023-05-05T00:12:42.360Z,24.95
2023-05-05T00:15:08.691Z,24.52
2023-05-05T00:17:35.182Z,24.13
2023-05-05T00:20:01.951Z,23.45
2023-05-05T00:22:28.350Z,22.98
2023-05-05T00:24:54.860Z,22.63
2023-05-05T00:27:21.245Z,24.05
2023-05-05T00:29:47.593Z,22.08
2023-05-05T00:32:14.010Z,23.23
2023-05-05T00:34:40.419Z,22.23
2023-05-05T00:37:07.189Z,22.70
2023-05-05T00:39:33.612Z,21.95
2023-05-05T00:41:59.916Z,22.63
2023-05-05T00:44:26.633Z,20.70
2023-05-05T00:46:53.582Z,20.92
2023-05-05T00:49:20.107Z,20.98
2023-05-05T00:51:46.466Z,22.08
2023-05-05T00:54:12.979Z,20.90
2023-05-05T00:56:39.607Z,20.92
2023-05-05T00:59:06.773Z,20.95
2023-05-05T01:01:33.347Z,20.10
2023-05-05T01:04:00.128Z,20.33
2023-05-05T01:06:27.304Z,20.50
2023-05-05T01:08:53.727Z,20.50
2023-05-05T01:11:27.629Z,20.52
2023-05-05T01:13:54.323Z,20.92
2023-05-05T01:16:21.029Z,19.63
2023-05-05T01:18:48.223Z,20.55
2023-05-05T01:21:15.257Z,18.75
2023-05-05T01:23:43.787Z,19.05
2023-05-05T01:26:20.029Z,18.58
2023-05-05T01:28:46.497Z,19.83
2023-05-05T01:31:13.115Z,19.83
2023-05-05T01:33:39.764Z,18.17
2023-05-05T01:36:06.326Z,17.95
2023-05-05T01:38:36.636Z,18.02
2023-05-05T01:41:03.036Z,18.67
2023-05-05T01:43:29.387Z,19.80
2023-05-05T01:45:55.818Z,17.85
2023-05-05T01:48:22.569Z,17.95
2023-05-05T01:50:49.167Z,18.25
2023-05-05T01:53:15.485Z,17.63
2023-05-05T01:55:42.726Z,17.50
2023-05-05T01:58:09.162Z,16.80
2023-05-05T02:00:35.997Z,17.48
2023-05-05T02:03:02.844Z,17.60
2023-05-05T02:05:30.271Z,17.17
2023-05-05T02:07:56.615Z,17.48
2023-05-05T02:10:23.577Z,17.15
2023-05-05T02:12:50.033Z,17.70
2023-05-05T02:15:16.474Z,16.27
2023-05-05T02:17:42.929Z,17.30
2023-05-05T02:20:09.446Z,17.08
2023-05-05T02:22:35.969Z,15.95
2023-05-05T02:25:02.358Z,15.90
2023-05-05T02:27:29.791Z,15.30
2023-05-05T02:29:56.116Z,16.52
2023-05-05T02:32:22.890Z,16.27
2023-05-05T02:34:49.597Z,15.57
2023-05-05T02:37:17.316Z,16.30
2023-05-05T02:39:43.913Z,15.90
2023-05-05T02:42:10.471Z,15.07
2023-05-05T02:44:37.023Z,16.02
2023-05-05T02:47:03.405Z,16.60
2023-05-05T02:49:30.210Z,15.43
2023-05-05T02:51:56.762Z,15.93
2023-05-05T02:54:23.224Z,16.15
2023-05-05T02:56:49.540Z,16.33
2023-05-05T02:59:16.382Z,15.05
2023-05-05T03:01:42.975Z,13.98
2023-05-05T03:04:09.430Z,15.52
2023-05-05T03:06:36.263Z,14.93
2023-05-05T03:09:02.836Z,14.88
2023-05-05T03:11:29.171Z,14.63
2023-05-05T03:13:55.691Z,14.88
2023-05-05T03:16:22.186Z,13.52
2023-05-05T03:18:48.799Z,14.63
2023-05-05T03:21:15.504Z,14.98
2023-05-05T03:23:41.986Z,13.68
2023-05-05T03:26:08.768Z,14.25
2023-05-05T03:28:35.187Z,14.10
2023-05-05T03:31:01.589Z,14.25
2023-05-05T03:33:28.136Z,14.10
2023-05-05T03:35:54.736Z,12.57
2023-05-05T03:38:21.323Z,13.65
2023-05-05T03:40:48.285Z,13.70
2023-05-05T03:43:18.158Z,13.88
2023-05-05T03:45:44.487Z,12.77
2023-05-05T03:48:11.231Z,13.02
2023-05-05T03:50:39.218Z,12.50
2023-05-05T03:53:05.602Z,13.50
2023-05-05T03:55:32.300Z,13.40
2023-05-05T03:57:58.811Z,13.35
2023-05-05T04:00:25.423Z,12.88
2023-05-05T04:02:51.835Z,12.32
2023-05-05T04:05:18.264Z,12.77
2023-05-05T04:07:44.761Z,13.13
2023-05-05T04:10:11.202Z,13.13
2023-05-05T04:12:37.620Z,12.23
2023-05-05T04:15:04.117Z,12.10
2023-05-05T04:17:30.537Z,12.80
2023-05-05T04:19:56.945Z,13.70
2023-05-05T04:22:23.322Z,13.02
2023-05-05T04:24:50.617Z,11.68
2023-05-05T04:27:17.072Z,12.77
2023-05-05T04:29:43.494Z,11.20
2023-05-05T04:32:09.911Z,11.52
2023-05-05T04:34:36.431Z,12.00
2023-05-05T04:37:03.059Z,11.38
2023-05-05T04:39:29.507Z,11.32
2023-05-05T04:41:55.907Z,11.23
2023-05-05T04:44:22.370Z,12.10
2023-05-05T04:46:48.740Z,11.50
2023-05-05T04:49:15.145Z,11.88
2023-05-05T04:51:41.498Z,11.32
2023-05-05T04:54:07.919Z,11.05
2023-05-05T04:56:34.302Z,11.80
2023-05-05T04:59:00.710Z,11.80
2023-05-05T05:01:27.705Z,10.88
2023-05-05T05:03:54.311Z,11.25
2023-05-05T05:06:24.405Z,11.70
2023-05-05T05:08:50.933Z,11.00
2023-05-05T05:11:17.238Z,11.20
2023-05-05T05:13:43.639Z,10.80
2023-05-05T05:16:10.366Z,10.93
2023-05-05T05:18:36.857Z,11.20
2023-05-05T05:21:03.291Z,11.25
2023-05-05T05:23:29.680Z,11.27
2023-05-05T05:25:56.018Z,10.30
2023-05-05T05:28:22.635Z,10.50
2023-05-05T05:30:48.964Z,10.65
2023-05-05T05:33:15.369Z,10.57
2023-05-05T05:35:41.817Z,9.77
2023-05-05T05:38:08.239Z,10.13
2023-05-05T05:40:36.935Z,10.00
2023-05-05T05:43:03.482Z,8.77
2023-05-05T05:45:30.266Z,8.93
2023-05-05T05:47:56.749Z,8.68
2023-05-05T05:50:23.622Z,8.93
2023-05-05T05:52:50.047Z,8.88
2023-05-05T05:55:17.077Z,9.75
2023-05-05T05:57:43.539Z,8.77
2023-05-05T06:00:10.134Z,9.07
2023-05-05T06:02:36.709Z,9.90
2023-05-05T06:05:03.091Z,8.80
2023-05-05T06:07:29.468Z,9.48
2023-05-05T06:09:55.960Z,9.55
2023-05-05T06:12:22.316Z,8.70
2023-05-05T06:14:49.318Z,10.02
2023-05-05T06:17:15.691Z,9.02
2023-05-05T06:19:42.137Z,9.57
2023-05-05T06:22:08.561Z,9.32
2023-05-05T06:24:35.485Z,9.35
2023-05-05T06:27:01.779Z,9.48
2023-05-05T06:29:30.027Z,9.23
2023-05-05T06:31:56.462Z,9.95
2023-05-05T06:34:22.919Z,9.65
2023-05-05T06:36:49.215Z,9.32
2023-05-05T06:39:16.230Z,10.27
2023-05-05T06:41:43.513Z,9.18
2023-05-05T06:44:09.924Z,9.10
2023-05-05T06:46:36.376Z,9.18
2023-05-05T06:49:03.211Z,9.13
2023-05-05T06:51:29.899Z,9.52
2023-05-05T06:53:56.305Z,9.60
2023-05-05T06:56:23.159Z,9.25
2023-05-05T06:58:49.996Z,9.77
2023-05-05T07:01:16.620Z,9.75
2023-05-05T07:03:43.612Z,9.85
2023-05-05T07:06:10.541Z,10.00
2023-05-05T07:08:36.937Z,9.13
2023-05-05T07:11:03.498Z,9.27
2023-05-05T07:13:29.947Z,10.00
2023-05-05T07:15:56.387Z,8.80
2023-05-05T07:18:22.738Z,10.07
2023-05-05T07:20:49.574Z,10.02
2023-05-05T07:23:16.194Z,9.27
2023-05-05T07:25:42.847Z,9.93
2023-05-05T07:28:09.790Z,9.57
2023-05-05T07:30:36.152Z,10.82
2023-05-05T07:33:02.521Z,9.82
2023-05-05T07:35:28.982Z,9.90
2023-05-05T07:37:55.578Z,9.07
2023-05-05T07:40:22.127Z,9.10
2023-05-05T07:42:48.517Z,9.60
2023-05-05T07:45:14.956Z,9.60
2023-05-05T07:47:41.552Z,10.10
2023-05-05T07:50:08.676Z,10.48
2023-05-05T07:52:46.853Z,9.63
2023-05-05T07:55:18.135Z,10.88
2023-05-05T07:57:48.252Z,10.93
2023-05-05T08:00:14.601Z,10.18
2023-05-05T08:02:41.033Z,9.68
2023-05-05T08:05:08.585Z,11.43
2023-05-05T08:07:35.429Z,10.00
2023-05-05T08:10:01.892Z,10.27
2023-05-05T08:12:30.745Z,10.98
2023-05-05T08:14:57.390Z,10.68
2023-05-05T08:17:24.331Z,10.75
2023-05-05T08:19:50.793Z,9.25
2023-05-05T08:22:17.434Z,10.30
2023-05-05T08:24:44.181Z,10.20
2023-05-05T08:27:10.590Z,10.77
2023-05-05T08:29:37.009Z,9.55
2023-05-05T08:32:03.554Z,10.18
2023-05-05T08:34:29.887Z,10.05
2023-05-05T08:36:56.297Z,10.18
2023-05-05T08:39:22.801Z,9.60
2023-05-05T08:41:49.252Z,10.05
2023-05-05T08:44:17.372Z,9.93
2023-05-05T08:46:43.773Z,9.73
2023-05-05T08:49:17.339Z,10.57
2023-05-05T08:51:43.884Z,9.40
2023-05-05T08:54:10.277Z,10.23
2023-05-05T08:56:36.654Z,9.73
2023-05-05T08:59:03.567Z,9.25
2023-05-05T09:01:30.132Z,10.18
2023-05-05T09:03:57.111Z,9.13
2023-05-05T09:06:23.443Z,9.90
2023-05-05T09:08:49.912Z,10.10
2023-05-05T09:11:16.792Z,8.98
2023-05-05T09:13:43.255Z,9.77
2023-05-05T09:16:09.690Z,10.18
2023-05-05T09:18:36.309Z,9.13
2023-05-05T09:21:02.698Z,9.57
2023-05-05T09:23:29.397Z,9.68
2023-05-05T09:25:58.687Z,9.18
2023-05-05T09:28:25.126Z,10.35
2023-05-05T09:30:51.700Z,10.15
2023-05-05T09:33:18.333Z,9.70
2023-05-05T09:35:45.251Z,9.80
2023-05-05T09:38:12.003Z,9.15
2023-05-05T09:40:38.900Z,8.98
2023-05-05T09:43:05.526Z,9.30
2023-05-05T09:45:31.849Z,9.48
2023-05-05T09:48:00.164Z,8.57
2023-05-05T09:50:27.037Z,8.82
2023-05-05T09:52:53.397Z,8.80
2023-05-05T09:55:20.064Z,8.15
2023-05-05T09:57:46.653Z,8.63
2023-05-05T10:00:13.014Z,8.75
2023-05-05T10:02:39.705Z,8.60
2023-05-05T10:05:06.221Z,8.48
2023-05-05T10:07:32.731Z,8.50
2023-05-05T10:09:59.524Z,7.75
2023-05-05T10:12:29.564Z,9.10
2023-05-05T10:14:56.164Z,8.13
2023-05-05T10:17:22.640Z,7.80
2023-05-05T10:19:49.134Z,8.55
2023-05-05T10:22:15.534Z,7.78
2023-05-05T10:24:42.100Z,8.15
2023-05-05T10:27:09.158Z,8.23
2023-05-05T10:29:36.564Z,7.93
2023-05-05T10:32:16.269Z,8.00
2023-05-05T10:34:49.530Z,7.75
2023-05-05T10:37:16.012Z,7.35
2023-05-05T10:39:43.005Z,7.45
2023-05-05T10:42:09.605Z,7.18
2023-05-05T10:44:36.343Z,7.93
2023-05-05T10:47:02.716Z,8.40
2023-05-05T10:49:32.077Z,6.90
2023-05-05T10:51:58.710Z,7.38
2023-05-05T10:54:25.468Z,7.63
2023-05-05T10:56:51.842Z,7.20
2023-05-05T10:59:20.761Z,7.07
2023-05-05T11:01:47.178Z,6.50
2023-05-05T11:04:14.035Z,7.45
2023-05-05T11:06:40.642Z,7.07
2023-05-05T11:09:13.530Z,7.72
2023-05-05T11:11:40.052Z,6.70
2023-05-05T11:14:06.407Z,6.93
2023-05-05T11:16:33.173Z,7.50
2023-05-05T11:18:59.616Z,7.50
2023-05-05T11:21:26.127Z,7.30
2023-05-05T11:23:52.474Z,6.65
2023-05-05T11:26:19.314Z,6.68
2023-05-05T11:28:46.362Z,6.90
2023-05-05T11:31:12.712Z,7.05
2023-05-05T11:33:39.340Z,7.32
2023-05-05T11:36:06.785Z,7.68
2023-05-05T11:38:33.632Z,7.45
2023-05-05T11:41:00.211Z,6.47
2023-05-05T11:43:27.146Z,7.20
2023-05-05T11:45:53.990Z,6.90
2023-05-05T11:48:20.673Z,6.78
2023-05-05T11:50:47.029Z,7.60
2023-05-05T11:53:13.712Z,6.30
2023-05-05T11:55:40.162Z,5.70
2023-05-05T11:58:06.535Z,6.90
2023-05-05T12:00:34.952Z,6.72
2023-05-05T12:03:01.998Z,6.82
2023-05-05T12:05:28.595Z,6.57
2023-05-05T12:07:54.948Z,7.30
2023-05-05T12:10:21.811Z,6.32
2023-05-05T12:12:48.451Z,7.45
2023-05-05T12:15:14.993Z,6.65
2023-05-05T12:17:41.397Z,7.07
2023-05-05T12:20:09.390Z,6.93
2023-05-05T12:22:38.783Z,7.40
2023-05-05T12:25:05.236Z,7.78
2023-05-05T12:27:31.616Z,6.63
2023-05-05T12:29:57.994Z,7.85
2023-05-05T12:32:24.336Z,7.80
2023-05-05T12:34:50.910Z,7.88
2023-05-05T12:37:17.212Z,9.48
2023-05-05T12:39:43.957Z,12.52
2023-05-05T12:42:10.340Z,14.68
2023-05-05T12:44:37.399Z,28.05
2023-05-05T12:47:03.832Z,36.67
2023-05-05T12:49:30.328Z,50.40
2023-05-05T12:51:56.732Z,51.40
2023-05-05T12:54:23.132Z,52.97
2023-05-05T12:56:49.543Z,51.50
2023-05-05T12:59:15.886Z,51.88
2023-05-05T13:01:42.306Z,53.60
2023-05-05T13:04:08.754Z,53.75
2023-05-05T13:06:35.151Z,53.00
2023-05-05T13:09:01.651Z,50.55
2023-05-05T13:11:28.565Z,49.72
2023-05-05T13:13:55.935Z,47.90
2023-05-05T13:16:22.312Z,46.55
2023-05-05T13:18:49.109Z,41.72
2023-05-05T13:21:17.872Z,41.97
2023-05-05T13:23:44.378Z,40.80
2023-05-05T13:26:10.771Z,42.38
2023-05-05T13:28:37.101Z,39.35
2023-05-05T13:31:03.494Z,39.75
2023-05-05T13:33:30.223Z,38.63
2023-05-05T13:35:56.850Z,39.90
2023-05-05T13:38:23.186Z,35.25
2023-05-05T13:40:49.533Z,35.22
2023-05-05T13:43:16.048Z,34.25
2023-05-05T13:45:42.769Z,33.47
2023-05-05T13:48:09.465Z,30.50
2023-05-05T13:50:38.456Z,32.00
2023-05-05T13:53:05.806Z,30.65
2023-05-05T13:55:32.270Z,28.88
2023-05-05T13:57:58.681Z,29.25
2023-05-05T14:00:25.371Z,28.02
2023-05-05T14:02:51.813Z,26.85
2023-05-05T14:05:18.265Z,26.92
2023-05-05T14:07:44.678Z,25.38
2023-05-05T14:10:11.273Z,26.33
2023-05-05T14:12:37.977Z,26.10
2023-05-05T14:15:04.676Z,25.38
2023-05-05T14:17:31.154Z,23.48
2023-05-05T14:19:57.799Z,24.25
2023-05-05T14:22:25.396Z,23.17
2023-05-05T14:24:51.775Z,24.00
2023-05-05T14:27:18.100Z,21.33
2023-05-05T14:29:44.701Z,20.60
2023-05-05T14:32:11.456Z,19.90
2023-05-05T14:34:37.971Z,19.00
2023-05-05T14:37:04.526Z,19.17
2023-05-05T14:39:31.016Z,18.83
2023-05-05T14:41:58.878Z,18.83
2023-05-05T14:44:25.278Z,17.40
2023-05-05T14:46:51.664Z,18.00
2023-05-05T14:49:18.309Z,17.05
2023-05-05T14:51:44.826Z,16.60
2023-05-05T14:54:24.036Z,16.75
2023-05-05T14:56:50.935Z,16.25
2023-05-05T14:59:17.697Z,15.25
2023-05-05T15:01:44.123Z,15.32
2023-05-05T15:04:10.629Z,14.52
2023-05-05T15:06:37.386Z,13.98
2023-05-05T15:09:03.706Z,13.88
2023-05-05T15:11:30.411Z,15.48
2023-05-05T15:13:57.503Z,13.48
2023-05-05T15:16:23.999Z,14.68
2023-05-05T15:18:51.674Z,13.65
2023-05-05T15:21:18.187Z,13.95
2023-05-05T15:23:44.565Z,13.18
2023-05-05T15:26:11.008Z,13.35
2023-05-05T15:28:37.691Z,11.80
2023-05-05T15:31:04.470Z,12.40
2023-05-05T15:33:30.849Z,11.48
2023-05-05T15:35:57.388Z,12.20
2023-05-05T15:38:23.758Z,12.00
2023-05-05T15:40:50.406Z,11.20
2023-05-05T15:43:17.077Z,11.23
2023-05-05T15:45:43.566Z,11.25
2023-05-05T15:48:09.990Z,11.10
2023-05-05T15:50:36.456Z,10.43
2023-05-05T15:53:04.305Z,10.95
2023-05-05T15:55:30.975Z,9.88
2023-05-05T15:57:57.351Z,10.95
2023-05-05T16:00:23.687Z,10.30
2023-05-05T16:02:50.392Z,9.57
2023-05-05T16:05:16.747Z,9.52
2023-05-05T16:07:43.037Z,9.95
2023-05-05T16:10:09.370Z,9.75
2023-05-05T16:12:35.887Z,9.73
2023-05-05T16:15:02.253Z,9.00
2023-05-05T16:17:28.640Z,8.88
2023-05-05T16:19:54.988Z,9.07
2023-05-05T16:22:21.356Z,9.50
2023-05-05T16:24:47.718Z,9.30
2023-05-05T16:27:14.342Z,8.55
2023-05-05T16:29:40.673Z,8.70
2023-05-05T16:32:07.799Z,8.23
2023-05-05T16:34:34.640Z,8.90
2023-05-05T16:37:01.267Z,8.95
2023-05-05T16:39:27.803Z,9.15
2023-05-05T16:41:54.351Z,8.63
2023-05-05T16:44:20.777Z,8.57
2023-05-05T16:46:47.322Z,8.57
2023-05-05T16:49:13.742Z,8.15
2023-05-05T16:51:40.106Z,8.32
2023-05-05T16:54:06.698Z,8.90
2023-05-05T16:56:37.383Z,7.63
2023-05-05T16:59:03.883Z,7.68
2023-05-05T17:01:30.271Z,8.52
2023-05-05T17:03:58.737Z,8.50
2023-05-05T17:06:25.137Z,7.93
2023-05-05T17:08:51.626Z,7.72
2023-05-05T17:11:18.567Z,6.90
2023-05-05T17:13:44.957Z,8.20
2023-05-05T17:16:11.368Z,8.18
2023-05-05T17:18:38.083Z,7.82
2023-05-05T17:21:04.434Z,8.30
2023-05-05T17:23:33.513Z,8.48
2023-05-05T17:26:00.189Z,8.50
2023-05-05T17:28:26.762Z,7.53
2023-05-05T17:30:53.718Z,7.88
2023-05-05T17:33:20.241Z,7.65
2023-05-05T17:35:46.706Z,8.52
2023-05-05T17:38:13.178Z,8.35
2023-05-05T17:40:39.613Z,7.22
2023-05-05T17:43:05.987Z,7.43
2023-05-05T17:45:32.561Z,7.15
2023-05-05T17:47:59.028Z,8.25
2023-05-05T17:50:25.412Z,7.78
2023-05-05T17:52:51.786Z,7.90
2023-05-05T17:55:18.275Z,7.43
2023-05-05T17:57:47.208Z,6.88
2023-05-05T18:00:13.550Z,7.63
2023-05-05T18:02:40.944Z,7.97
2023-05-05T18:05:08.049Z,8.10
2023-05-05T18:07:34.678Z,7.03
2023-05-05T18:10:01.088Z,7.07
2023-05-05T18:12:27.863Z,7.93
2023-05-05T18:14:54.323Z,7.47
2023-05-05T18:17:20.863Z,7.20
2023-05-05T18:19:49.098Z,7.43
2023-05-05T18:22:15.801Z,7.30
2023-05-05T18:24:42.624Z,7.13
2023-05-05T18:27:08.997Z,7.32
2023-05-05T18:29:35.351Z,6.78
2023-05-05T18:32:01.647Z,7.57
2023-05-05T18:34:28.610Z,6.88
2023-05-05T18:36:55.421Z,7.05
2023-05-05T18:39:21.712Z,7.07
2023-05-05T18:41:48.341Z,8.25
2023-05-05T18:44:15.020Z,7.63
2023-05-05T18:46:41.370Z,7.38
2023-05-05T18:49:08.080Z,7.10
2023-05-05T18:51:34.361Z,7.53
2023-05-05T18:54:00.857Z,7.00
2023-05-05T18:56:27.570Z,6.78
2023-05-05T18:58:53.980Z,7.18
2023-05-05T19:01:20.421Z,7.35
2023-05-05T19:03:46.859Z,6.97
2023-05-05T19:06:13.366Z,6.95
2023-05-05T19:08:39.880Z,7.20
2023-05-05T19:11:06.630Z,7.18
2023-05-05T19:13:33.041Z,7.13
2023-05-05T19:15:59.484Z,7.10
2023-05-05T19:18:25.850Z,6.60
2023-05-05T19:20:52.372Z,6.72
2023-05-05T19:23:18.810Z,7.18
2023-05-05T19:25:45.337Z,6.65
2023-05-05T19:28:11.904Z,7.05
2023-05-05T19:30:38.259Z,7.57
2023-05-05T19:33:04.957Z,6.88
2023-05-05T19:35:31.734Z,6.55
2023-05-05T19:37:58.350Z,6.90
2023-05-05T19:40:24.922Z,6.97
2023-05-05T19:42:51.269Z,6.57
2023-05-05T19:45:18.164Z,6.90
2023-05-05T19:47:44.764Z,7.25
2023-05-05T19:50:11.702Z,7.30
2023-05-05T19:52:38.168Z,6.50
2023-05-05T19:55:04.661Z,7.05
2023-05-05T19:57:31.100Z,6.63
2023-05-05T19:59:59.870Z,6.60
2023-05-05T20:02:26.385Z,6.72
2023-05-05T20:04:53.304Z,7.13
2023-05-05T20:07:19.737Z,6.68
2023-05-05T20:09:46.122Z,6.82
2023-05-05T20:12:12.512Z,6.63
2023-05-05T20:14:39.527Z,7.20
2023-05-05T20:17:05.945Z,6.75
2023-05-05T20:19:32.369Z,6.30
2023-05-05T20:21:58.970Z,7.20
2023-05-05T20:24:25.500Z,7.35
2023-05-05T20:26:51.925Z,7.10
2023-05-05T20:29:18.374Z,7.25
2023-05-05T20:31:44.798Z,7.28
2023-05-05T20:34:11.189Z,7.68
2023-05-05T20:36:37.798Z,7.15
2023-05-05T20:39:04.272Z,7.25
2023-05-05T20:41:31.066Z,7.05
2023-05-05T20:43:57.403Z,7.65
2023-05-05T20:46:23.897Z,6.60
2023-05-05T20:48:50.323Z,7.40
2023-05-05T20:51:16.722Z,6.28
2023-05-05T20:53:43.283Z,6.95
2023-05-05T20:56:09.829Z,6.70
2023-05-05T20:58:36.234Z,7.32
2023-05-05T21:01:02.673Z,7.15
2023-05-05T21:03:29.173Z,7.00
2023-05-05T21:05:56.784Z,7.55
2023-05-05T21:08:23.236Z,7.18
2023-05-05T21:10:49.820Z,7.18
2023-05-05T21:13:16.715Z,7.22
2023-05-05T21:15:43.126Z,7.30
2023-05-05T21:18:09.600Z,6.78
2023-05-05T21:20:36.052Z,7.18
2023-05-05T21:23:02.643Z,7.05
2023-05-05T21:25:29.148Z,7.55
2023-05-05T21:27:55.710Z,6.78
2023-05-05T21:30:22.191Z,6.97
2023-05-05T21:32:48.609Z,6.47
2023-05-05T21:35:15.180Z,7.82
2023-05-05T21:37:41.848Z,7.00
2023-05-05T21:40:08.665Z,6.82
2023-05-05T21:42:35.341Z,6.75
2023-05-05T21:45:01.816Z,7.15
2023-05-05T21:47:28.294Z,7.57
2023-05-05T21:49:54.892Z,7.05
2023-05-05T21:52:21.172Z,6.25
2023-05-05T21:54:47.573Z,6.65
2023-05-05T21:57:14.131Z,6.35
2023-05-05T21:59:43.489Z,6.65
2023-05-05T22:02:09.856Z,6.70
2023-05-05T22:04:36.728Z,6.57
2023-05-05T22:07:03.063Z,6.18
2023-05-05T22:09:29.416Z,7.07
2023-05-05T22:11:56.514Z,6.22
2023-05-05T22:14:23.587Z,6.22
2023-05-05T22:16:50.097Z,6.68
2023-05-05T22:19:26.309Z,6.78
2023-05-05T22:21:52.817Z,6.80
2023-05-05T22:24:19.547Z,6.55
2023-05-05T22:26:45.987Z,7.65
2023-05-05T22:29:12.434Z,6.15
2023-05-05T22:31:39.249Z,6.40
2023-05-05T22:34:05.672Z,6.80
2023-05-05T22:36:32.084Z,6.25
2023-05-05T22:38:58.538Z,6.35
2023-05-05T22:41:25.033Z,6.75
2023-05-05T22:43:51.540Z,5.95
2023-05-05T22:46:18.234Z,6.53
2023-05-05T22:48:44.633Z,6.68
2023-05-05T22:51:10.979Z,6.68
2023-05-05T22:53:37.350Z,6.45
2023-05-05T22:56:03.757Z,6.80
2023-05-05T22:58:30.507Z,6.35
2023-05-05T23:00:56.863Z,6.38
2023-05-05T23:03:23.323Z,6.10
2023-05-05T23:05:49.624Z,6.55
2023-05-05T23:08:16.106Z,7.10
2023-05-05T23:10:42.390Z,6.50
2023-05-05T23:13:10.177Z,5.68
2023-05-05T23:15:36.546Z,6.47
2023-05-05T23:18:03.217Z,6.60
2023-05-05T23:20:30.453Z,6.35
2023-05-05T23:22:57.012Z,6.30
2023-05-05T23:25:23.938Z,6.97
2023-05-05T23:27:50.409Z,6.07
2023-05-05T23:30:16.798Z,6.07
2023-05-05T23:32:43.663Z,6.05
2023-05-05T23:35:10.441Z,6.00
2023-05-05T23:37:37.485Z,6.35
2023-05-05T23:40:03.855Z,6.47
2023-05-05T23:42:30.254Z,5.90
2023-05-05T23:44:56.594Z,6.13
2023-05-05T23:47:23.019Z,6.20
2023-05-05T23:49:49.812Z,5.85
2023-05-05T23:52:16.195Z,6.03
2023-05-05T23:54:43.032Z,6.47
2023-05-05T23:57:09.811Z,5.75
2023-05-05T23:59:36.664Z,6.38
